sensor_id;sensor_type;location;lat;lon;timestamp;temperature;humidity
10812;DHT22;5458;51.496;7.334;2023-04-24T00:01:28;13.10;99.90
10812;DHT22;5458;51.496;7.334;2023-04-24T00:03:55;13.00;99.90
10812;DHT22;5458;51.496;7.334;2023-04-24T00:06:25;13.00;99.90
10812;DHT22;5458;51.496;7.334;2023-04-24T00:09:03;13.00;99.90
10812;DHT22;5458;51.496;7.334;2023-04-24T00:11:29;13.00;99.90
10812;DHT22;5458;51.496;7.334;2023-04-24T00:13:55;13.00;99.90
10812;DHT22;5458;51.496;7.334;2023-04-24T00:16:21;13.00;99.90
10812;DHT22;5458;51.496;7.334;2023-04-24T00:18:46;12.90;99.90
10812;DHT22;5458;51.496;7.334;2023-04-24T00:21:13;12.80;99.90
10812;DHT22;5458;51.496;7.334;2023-04-24T00:23:39;12.70;99.90
10812;DHT22;5458;51.496;7.334;2023-04-24T00:26:04;12.70;99.90
10812;DHT22;5458;51.496;7.334;2023-04-24T00:28:30;12.70;99.90
10812;DHT22;5458;51.496;7.334;2023-04-24T00:30:56;12.60;99.90
10812;DHT22;5458;51.496;7.334;2023-04-24T00:33:21;12.60;99.90
10812;DHT22;5458;51.496;7.334;2023-04-24T00:35:48;12.50;99.90
10812;DHT22;5458;51.496;7.334;2023-04-24T00:38:14;12.50;99.90
10812;DHT22;5458;51.496;7.334;2023-04-24T00:40:40;12.40;99.90
10812;DHT22;5458;51.496;7.334;2023-04-24T00:43:05;12.30;99.90
10812;DHT22;5458;51.496;7.334;2023-04-24T00:45:31;12.30;99.90
10812;DHT22;5458;51.496;7.334;2023-04-24T00:47:57;12.40;99.90
10812;DHT22;5458;51.496;7.334;2023-04-24T00:50:24;12.30;99.90
10812;DHT22;5458;51.496;7.334;2023-04-24T00:52:50;12.30;99.90
10812;DHT22;5458;51.496;7.334;2023-04-24T00:55:16;12.30;99.90
10812;DHT22;5458;51.496;7.334;2023-04-24T00:57:43;12.30;99.90
10812;DHT22;5458;51.496;7.334;2023-04-24T01:00:10;12.30;99.90
10812;DHT22;5458;51.496;7.334;2023-04-24T01:02:40;12.20;99.90
10812;DHT22;5458;51.496;7.334;2023-04-24T01:05:09;12.30;99.90
10812;DHT22;5458;51.496;7.334;2023-04-24T01:07:35;12.20;99.90
10812;DHT22;5458;51.496;7.334;2023-04-24T01:10:02;12.20;99.90
10812;DHT22;5458;51.496;7.334;2023-04-24T01:12:27;12.20;99.90
10812;DHT22;5458;51.496;7.334;2023-04-24T01:14:54;12.20;99.90
10812;DHT22;5458;51.496;7.334;2023-04-24T01:17:20;12.20;99.90
10812;DHT22;5458;51.496;7.334;2023-04-24T01:19:46;12.10;99.90
10812;DHT22;5458;51.496;7.334;2023-04-24T01:22:15;12.10;99.90
10812;DHT22;5458;51.496;7.334;2023-04-24T01:24:42;12.00;99.90
10812;DHT22;5458;51.496;7.334;2023-04-24T01:27:09;12.10;99.90
10812;DHT22;5458;51.496;7.334;2023-04-24T01:29:35;12.10;99.90
10812;DHT22;5458;51.496;7.334;2023-04-24T01:32:00;12.20;99.90
10812;DHT22;5458;51.496;7.334;2023-04-24T01:34:26;12.20;99.90
10812;DHT22;5458;51.496;7.334;2023-04-24T01:36:52;12.20;99.90
10812;DHT22;5458;51.496;7.334;2023-04-24T01:39:18;12.30;99.90
10812;DHT22;5458;51.496;7.334;2023-04-24T01:41:46;12.30;99.90
10812;DHT22;5458;51.496;7.334;2023-04-24T01:44:12;12.20;99.90
10812;DHT22;5458;51.496;7.334;2023-04-24T01:46:38;12.30;99.90
10812;DHT22;5458;51.496;7.334;2023-04-24T01:49:04;12.20;99.90
10812;DHT22;5458;51.496;7.334;2023-04-24T01:51:29;12.10;99.90
10812;DHT22;5458;51.496;7.334;2023-04-24T01:53:55;12.10;99.90
10812;DHT22;5458;51.496;7.334;2023-04-24T01:56:22;12.10;99.90
10812;DHT22;5458;51.496;7.334;2023-04-24T01:58:49;12.00;99.90
10812;DHT22;5458;51.496;7.334;2023-04-24T02:01:19;11.90;99.90
10812;DHT22;5458;51.496;7.334;2023-04-24T02:03:45;12.00;99.90
10812;DHT22;5458;51.496;7.334;2023-04-24T02:06:11;12.00;99.90
10812;DHT22;5458;51.496;7.334;2023-04-24T02:08:36;12.00;99.90
10812;DHT22;5458;51.496;7.334;2023-04-24T02:11:02;12.00;99.90
10812;DHT22;5458;51.496;7.334;2023-04-24T02:13:28;11.90;99.90
10812;DHT22;5458;51.496;7.334;2023-04-24T02:15:54;11.90;99.90
10812;DHT22;5458;51.496;7.334;2023-04-24T02:18:19;11.90;99.90
10812;DHT22;5458;51.496;7.334;2023-04-24T02:20:46;11.90;99.90
10812;DHT22;5458;51.496;7.334;2023-04-24T02:23:11;11.80;99.90
10812;DHT22;5458;51.496;7.334;2023-04-24T02:25:38;11.70;99.90
10812;DHT22;5458;51.496;7.334;2023-04-24T02:28:04;11.60;99.90
10812;DHT22;5458;51.496;7.334;2023-04-24T02:30:29;11.50;99.90
10812;DHT22;5458;51.496;7.334;2023-04-24T02:32:56;11.40;99.90
10812;DHT22;5458;51.496;7.334;2023-04-24T02:35:21;11.40;99.90
10812;DHT22;5458;51.496;7.334;2023-04-24T02:37:47;11.30;99.90
10812;DHT22;5458;51.496;7.334;2023-04-24T02:40:13;11.30;99.90
10812;DHT22;5458;51.496;7.334;2023-04-24T02:42:38;11.20;99.90
10812;DHT22;5458;51.496;7.334;2023-04-24T02:45:04;11.20;99.90
10812;DHT22;5458;51.496;7.334;2023-04-24T02:47:30;11.20;99.90
10812;DHT22;5458;51.496;7.334;2023-04-24T02:49:56;11.30;99.90
10812;DHT22;5458;51.496;7.334;2023-04-24T02:52:21;11.20;99.90
10812;DHT22;5458;51.496;7.334;2023-04-24T02:54:47;11.20;99.90
10812;DHT22;5458;51.496;7.334;2023-04-24T02:57:13;11.20;99.90
10812;DHT22;5458;51.496;7.334;2023-04-24T02:59:38;11.20;99.90
10812;DHT22;5458;51.496;7.334;2023-04-24T03:02:04;11.20;99.90
10812;DHT22;5458;51.496;7.334;2023-04-24T03:04:29;11.20;99.90
10812;DHT22;5458;51.496;7.334;2023-04-24T03:06:55;11.30;99.90
10812;DHT22;5458;51.496;7.334;2023-04-24T03:09:22;11.30;99.90
10812;DHT22;5458;51.496;7.334;2023-04-24T03:11:47;11.30;99.90
10812;DHT22;5458;51.496;7.334;2023-04-24T03:14:14;11.30;99.90
10812;DHT22;5458;51.496;7.334;2023-04-24T03:16:40;11.30;99.90
10812;DHT22;5458;51.496;7.334;2023-04-24T03:19:06;11.30;99.90
10812;DHT22;5458;51.496;7.334;2023-04-24T03:21:32;11.30;99.90
10812;DHT22;5458;51.496;7.334;2023-04-24T03:23:58;11.30;99.90
10812;DHT22;5458;51.496;7.334;2023-04-24T03:26:23;11.30;99.90
10812;DHT22;5458;51.496;7.334;2023-04-24T03:28:50;11.30;99.90
10812;DHT22;5458;51.496;7.334;2023-04-24T03:31:15;11.30;99.90
10812;DHT22;5458;51.496;7.334;2023-04-24T03:33:42;11.40;99.90
10812;DHT22;5458;51.496;7.334;2023-04-24T03:36:07;11.40;99.90
10812;DHT22;5458;51.496;7.334;2023-04-24T03:38:33;11.40;99.90
10812;DHT22;5458;51.496;7.334;2023-04-24T03:40:58;11.30;99.90
10812;DHT22;5458;51.496;7.334;2023-04-24T03:43:24;11.30;99.90
10812;DHT22;5458;51.496;7.334;2023-04-24T03:45:50;11.40;99.90
10812;DHT22;5458;51.496;7.334;2023-04-24T03:48:16;11.40;99.90
10812;DHT22;5458;51.496;7.334;2023-04-24T03:50:41;11.30;99.90
10812;DHT22;5458;51.496;7.334;2023-04-24T03:53:07;11.40;99.90
10812;DHT22;5458;51.496;7.334;2023-04-24T03:55:33;11.30;99.90
10812;DHT22;5458;51.496;7.334;2023-04-24T03:57:59;11.40;99.90
10812;DHT22;5458;51.496;7.334;2023-04-24T04:00:24;11.30;99.90
10812;DHT22;5458;51.496;7.334;2023-04-24T04:02:51;11.30;99.90
10812;DHT22;5458;51.496;7.334;2023-04-24T04:05:17;11.20;99.90
10812;DHT22;5458;51.496;7.334;2023-04-24T04:07:42;11.20;99.90
10812;DHT22;5458;51.496;7.334;2023-04-24T04:10:08;11.30;99.90
10812;DHT22;5458;51.496;7.334;2023-04-24T04:12:34;11.30;99.90
10812;DHT22;5458;51.496;7.334;2023-04-24T04:14:59;11.30;99.90
10812;DHT22;5458;51.496;7.334;2023-04-24T04:17:25;11.30;99.90
10812;DHT22;5458;51.496;7.334;2023-04-24T04:19:51;11.30;99.90
10812;DHT22;5458;51.496;7.334;2023-04-24T04:22:16;11.20;99.90
10812;DHT22;5458;51.496;7.334;2023-04-24T04:24:42;11.20;99.90
10812;DHT22;5458;51.496;7.334;2023-04-24T04:27:08;11.20;99.90
10812;DHT22;5458;51.496;7.334;2023-04-24T04:29:34;11.20;99.90
10812;DHT22;5458;51.496;7.334;2023-04-24T04:32:00;11.20;99.90
10812;DHT22;5458;51.496;7.334;2023-04-24T04:34:26;11.20;99.90
10812;DHT22;5458;51.496;7.334;2023-04-24T04:36:52;11.10;99.90
10812;DHT22;5458;51.496;7.334;2023-04-24T04:39:18;11.20;99.90
10812;DHT22;5458;51.496;7.334;2023-04-24T04:41:44;11.20;99.90
10812;DHT22;5458;51.496;7.334;2023-04-24T04:44:11;11.20;99.90
10812;DHT22;5458;51.496;7.334;2023-04-24T04:46:38;11.20;99.90
10812;DHT22;5458;51.496;7.334;2023-04-24T04:49:04;11.20;99.90
10812;DHT22;5458;51.496;7.334;2023-04-24T04:51:29;11.10;99.90
10812;DHT22;5458;51.496;7.334;2023-04-24T04:53:56;11.10;99.90
10812;DHT22;5458;51.496;7.334;2023-04-24T04:56:21;11.10;99.90
10812;DHT22;5458;51.496;7.334;2023-04-24T04:58:47;11.10;99.90
10812;DHT22;5458;51.496;7.334;2023-04-24T05:01:13;11.10;99.90
10812;DHT22;5458;51.496;7.334;2023-04-24T05:03:39;11.10;99.90
10812;DHT22;5458;51.496;7.334;2023-04-24T05:06:05;11.10;99.90
10812;DHT22;5458;51.496;7.334;2023-04-24T05:08:31;11.20;99.90
10812;DHT22;5458;51.496;7.334;2023-04-24T05:10:57;11.20;99.90
10812;DHT22;5458;51.496;7.334;2023-04-24T05:13:22;11.20;99.90
10812;DHT22;5458;51.496;7.334;2023-04-24T05:15:48;11.20;99.90
10812;DHT22;5458;51.496;7.334;2023-04-24T05:18:13;11.20;99.90
10812;DHT22;5458;51.496;7.334;2023-04-24T05:20:40;11.20;99.90
10812;DHT22;5458;51.496;7.334;2023-04-24T05:23:08;11.20;99.90
10812;DHT22;5458;51.496;7.334;2023-04-24T05:25:33;11.20;99.90
10812;DHT22;5458;51.496;7.334;2023-04-24T05:28:01;11.30;99.90
10812;DHT22;5458;51.496;7.334;2023-04-24T05:30:27;11.30;99.90
10812;DHT22;5458;51.496;7.334;2023-04-24T05:32:52;11.50;99.90
10812;DHT22;5458;51.496;7.334;2023-04-24T05:35:18;11.70;99.90
10812;DHT22;5458;51.496;7.334;2023-04-24T05:37:44;12.00;99.90
10812;DHT22;5458;51.496;7.334;2023-04-24T05:40:10;12.10;99.90
10812;DHT22;5458;51.496;7.334;2023-04-24T05:42:36;12.00;99.90
10812;DHT22;5458;51.496;7.334;2023-04-24T05:45:02;11.80;99.90
10812;DHT22;5458;51.496;7.334;2023-04-24T05:47:28;11.60;99.90
10812;DHT22;5458;51.496;7.334;2023-04-24T05:49:54;11.40;99.90
10812;DHT22;5458;51.496;7.334;2023-04-24T05:52:20;11.30;99.90
10812;DHT22;5458;51.496;7.334;2023-04-24T05:54:45;11.30;99.90
10812;DHT22;5458;51.496;7.334;2023-04-24T05:57:11;11.20;99.90
10812;DHT22;5458;51.496;7.334;2023-04-24T05:59:37;11.10;99.90
10812;DHT22;5458;51.496;7.334;2023-04-24T06:02:06;11.10;99.90
10812;DHT22;5458;51.496;7.334;2023-04-24T06:04:33;11.10;99.90
10812;DHT22;5458;51.496;7.334;2023-04-24T06:06:59;11.10;99.90
10812;DHT22;5458;51.496;7.334;2023-04-24T06:09:25;11.10;99.90
10812;DHT22;5458;51.496;7.334;2023-04-24T06:11:51;11.10;99.90
10812;DHT22;5458;51.496;7.334;2023-04-24T06:14:20;11.00;99.90
10812;DHT22;5458;51.496;7.334;2023-04-24T06:16:46;11.10;99.90
10812;DHT22;5458;51.496;7.334;2023-04-24T06:19:12;11.10;99.90
10812;DHT22;5458;51.496;7.334;2023-04-24T06:21:37;11.10;99.90
10812;DHT22;5458;51.496;7.334;2023-04-24T06:24:03;11.00;99.90
10812;DHT22;5458;51.496;7.334;2023-04-24T06:26:30;11.10;99.90
10812;DHT22;5458;51.496;7.334;2023-04-24T06:28:55;11.10;99.90
10812;DHT22;5458;51.496;7.334;2023-04-24T06:31:21;11.10;99.90
10812;DHT22;5458;51.496;7.334;2023-04-24T06:33:48;11.00;99.90
10812;DHT22;5458;51.496;7.334;2023-04-24T06:36:14;11.00;99.90
10812;DHT22;5458;51.496;7.334;2023-04-24T06:38:41;11.00;99.90
10812;DHT22;5458;51.496;7.334;2023-04-24T06:41:07;10.90;99.90
10812;DHT22;5458;51.496;7.334;2023-04-24T06:43:33;10.90;99.90
10812;DHT22;5458;51.496;7.334;2023-04-24T06:46:00;10.90;99.90
10812;DHT22;5458;51.496;7.334;2023-04-24T06:48:26;10.90;99.90
10812;DHT22;5458;51.496;7.334;2023-04-24T06:50:52;10.90;99.90
10812;DHT22;5458;51.496;7.334;2023-04-24T06:53:18;10.90;99.90
10812;DHT22;5458;51.496;7.334;2023-04-24T06:55:43;11.10;99.90
10812;DHT22;5458;51.496;7.334;2023-04-24T06:58:11;11.20;99.90
10812;DHT22;5458;51.496;7.334;2023-04-24T07:00:37;11.70;99.90
10812;DHT22;5458;51.496;7.334;2023-04-24T07:03:03;12.80;99.90
10812;DHT22;5458;51.496;7.334;2023-04-24T07:08:05;13.10;99.90
10812;DHT22;5458;51.496;7.334;2023-04-24T07:10:32;13.00;99.90
10812;DHT22;5458;51.496;7.334;2023-04-24T07:12:59;12.60;99.90
10812;DHT22;5458;51.496;7.334;2023-04-24T07:15:25;12.30;99.90
10812;DHT22;5458;51.496;7.334;2023-04-24T07:17:50;12.10;99.90
10812;DHT22;5458;51.496;7.334;2023-04-24T07:20:16;11.80;99.90
10812;DHT22;5458;51.496;7.334;2023-04-24T07:22:41;11.70;99.90
10812;DHT22;5458;51.496;7.334;2023-04-24T07:25:07;11.70;99.90
10812;DHT22;5458;51.496;7.334;2023-04-24T07:27:34;11.60;99.90
10812;DHT22;5458;51.496;7.334;2023-04-24T07:30:01;11.50;99.90
10812;DHT22;5458;51.496;7.334;2023-04-24T07:32:27;11.50;99.90
10812;DHT22;5458;51.496;7.334;2023-04-24T07:34:52;11.40;99.90
10812;DHT22;5458;51.496;7.334;2023-04-24T07:37:18;11.40;99.90
10812;DHT22;5458;51.496;7.334;2023-04-24T07:39:44;11.30;99.90
10812;DHT22;5458;51.496;7.334;2023-04-24T07:42:10;11.30;99.90
10812;DHT22;5458;51.496;7.334;2023-04-24T07:44:35;11.30;99.90
10812;DHT22;5458;51.496;7.334;2023-04-24T07:47:01;11.30;99.90
10812;DHT22;5458;51.496;7.334;2023-04-24T07:49:27;11.30;99.90
10812;DHT22;5458;51.496;7.334;2023-04-24T07:51:53;11.30;99.90
10812;DHT22;5458;51.496;7.334;2023-04-24T07:54:18;11.30;99.90
10812;DHT22;5458;51.496;7.334;2023-04-24T07:56:44;11.40;99.90
10812;DHT22;5458;51.496;7.334;2023-04-24T07:59:10;11.30;99.90
10812;DHT22;5458;51.496;7.334;2023-04-24T08:01:36;11.30;99.90
10812;DHT22;5458;51.496;7.334;2023-04-24T08:04:02;11.30;99.90
10812;DHT22;5458;51.496;7.334;2023-04-24T08:06:28;11.40;99.90
10812;DHT22;5458;51.496;7.334;2023-04-24T08:08:56;11.50;99.90
10812;DHT22;5458;51.496;7.334;2023-04-24T08:11:22;11.50;99.90
10812;DHT22;5458;51.496;7.334;2023-04-24T08:13:47;11.50;99.90
10812;DHT22;5458;51.496;7.334;2023-04-24T08:16:13;11.60;99.90
10812;DHT22;5458;51.496;7.334;2023-04-24T08:18:38;11.60;99.90
10812;DHT22;5458;51.496;7.334;2023-04-24T08:21:04;11.50;99.90
10812;DHT22;5458;51.496;7.334;2023-04-24T08:23:30;11.40;99.90
10812;DHT22;5458;51.496;7.334;2023-04-24T08:25:55;11.30;99.90
10812;DHT22;5458;51.496;7.334;2023-04-24T08:28:22;11.30;99.90
10812;DHT22;5458;51.496;7.334;2023-04-24T08:30:47;11.10;99.90
10812;DHT22;5458;51.496;7.334;2023-04-24T08:33:14;11.20;99.90
10812;DHT22;5458;51.496;7.334;2023-04-24T08:35:40;11.30;99.90
10812;DHT22;5458;51.496;7.334;2023-04-24T08:38:05;11.20;99.90
10812;DHT22;5458;51.496;7.334;2023-04-24T08:40:34;11.20;99.90
10812;DHT22;5458;51.496;7.334;2023-04-24T08:43:00;11.10;99.90
10812;DHT22;5458;51.496;7.334;2023-04-24T08:45:26;11.10;99.90
10812;DHT22;5458;51.496;7.334;2023-04-24T08:47:53;11.00;99.90
10812;DHT22;5458;51.496;7.334;2023-04-24T08:50:21;11.00;99.90
10812;DHT22;5458;51.496;7.334;2023-04-24T08:52:49;11.00;99.90
10812;DHT22;5458;51.496;7.334;2023-04-24T08:55:15;10.90;99.90
10812;DHT22;5458;51.496;7.334;2023-04-24T08:57:45;10.80;99.90
10812;DHT22;5458;51.496;7.334;2023-04-24T09:00:11;10.80;99.90
10812;DHT22;5458;51.496;7.334;2023-04-24T09:02:41;10.70;99.90
10812;DHT22;5458;51.496;7.334;2023-04-24T09:05:07;10.70;99.90
10812;DHT22;5458;51.496;7.334;2023-04-24T09:07:35;10.70;99.90
10812;DHT22;5458;51.496;7.334;2023-04-24T09:10:02;10.60;99.90
10812;DHT22;5458;51.496;7.334;2023-04-24T09:12:28;10.60;99.90
10812;DHT22;5458;51.496;7.334;2023-04-24T09:14:54;10.60;99.90
10812;DHT22;5458;51.496;7.334;2023-04-24T09:17:20;10.60;99.90
10812;DHT22;5458;51.496;7.334;2023-04-24T09:19:49;10.60;99.90
10812;DHT22;5458;51.496;7.334;2023-04-24T09:22:15;10.60;99.90
10812;DHT22;5458;51.496;7.334;2023-04-24T09:24:40;10.60;99.90
10812;DHT22;5458;51.496;7.334;2023-04-24T09:27:07;10.70;99.90
10812;DHT22;5458;51.496;7.334;2023-04-24T09:29:32;10.60;99.90
10812;DHT22;5458;51.496;7.334;2023-04-24T09:31:58;10.70;99.90
10812;DHT22;5458;51.496;7.334;2023-04-24T09:34:26;10.80;99.90
10812;DHT22;5458;51.496;7.334;2023-04-24T09:36:53;10.80;99.90
10812;DHT22;5458;51.496;7.334;2023-04-24T09:39:19;10.80;99.90
10812;DHT22;5458;51.496;7.334;2023-04-24T09:41:55;10.80;99.90
10812;DHT22;5458;51.496;7.334;2023-04-24T09:44:27;10.80;99.90
10812;DHT22;5458;51.496;7.334;2023-04-24T09:46:55;10.80;99.90
10812;DHT22;5458;51.496;7.334;2023-04-24T09:49:29;10.90;99.90
10812;DHT22;5458;51.496;7.334;2023-04-24T09:54:30;11.00;99.90
10812;DHT22;5458;51.496;7.334;2023-04-24T09:56:55;11.00;99.90
10812;DHT22;5458;51.496;7.334;2023-04-24T09:59:22;11.00;99.90
10812;DHT22;5458;51.496;7.334;2023-04-24T10:01:48;11.00;99.90
10812;DHT22;5458;51.496;7.334;2023-04-24T10:04:22;10.90;99.90
10812;DHT22;5458;51.496;7.334;2023-04-24T10:06:50;10.80;99.90
10812;DHT22;5458;51.496;7.334;2023-04-24T10:09:21;10.80;99.90
10812;DHT22;5458;51.496;7.334;2023-04-24T10:11:49;10.70;99.90
10812;DHT22;5458;51.496;7.334;2023-04-24T10:14:21;10.60;99.90
10812;DHT22;5458;51.496;7.334;2023-04-24T10:16:47;10.60;99.90
10812;DHT22;5458;51.496;7.334;2023-04-24T10:19:17;10.60;99.90
10812;DHT22;5458;51.496;7.334;2023-04-24T10:21:45;10.60;99.90
10812;DHT22;5458;51.496;7.334;2023-04-24T10:24:15;10.50;99.90
10812;DHT22;5458;51.496;7.334;2023-04-24T10:26:41;10.50;99.90
10812;DHT22;5458;51.496;7.334;2023-04-24T10:29:07;10.40;99.90
10812;DHT22;5458;51.496;7.334;2023-04-24T10:31:36;10.50;99.90
10812;DHT22;5458;51.496;7.334;2023-04-24T10:34:04;10.50;99.90
10812;DHT22;5458;51.496;7.334;2023-04-24T10:36:31;10.60;99.90
10812;DHT22;5458;51.496;7.334;2023-04-24T10:39:01;10.50;99.90
10812;DHT22;5458;51.496;7.334;2023-04-24T10:41:27;10.50;99.90
10812;DHT22;5458;51.496;7.334;2023-04-24T10:44:13;10.50;99.90
10812;DHT22;5458;51.496;7.334;2023-04-24T10:46:42;10.60;99.90
10812;DHT22;5458;51.496;7.334;2023-04-24T10:49:08;10.60;99.90
10812;DHT22;5458;51.496;7.334;2023-04-24T10:52:03;10.50;99.90
10812;DHT22;5458;51.496;7.334;2023-04-24T10:54:36;10.60;99.90
10812;DHT22;5458;51.496;7.334;2023-04-24T10:59:52;10.70;99.90
10812;DHT22;5458;51.496;7.334;2023-04-24T11:02:37;10.70;99.90
10812;DHT22;5458;51.496;7.334;2023-04-24T11:05:04;10.80;99.90
10812;DHT22;5458;51.496;7.334;2023-04-24T11:07:30;10.70;99.90
10812;DHT22;5458;51.496;7.334;2023-04-24T11:09:59;10.80;99.90
10812;DHT22;5458;51.496;7.334;2023-04-24T11:12:26;10.90;99.90
10812;DHT22;5458;51.496;7.334;2023-04-24T11:17:36;11.10;99.90
10812;DHT22;5458;51.496;7.334;2023-04-24T11:20:10;11.10;99.90
10812;DHT22;5458;51.496;7.334;2023-04-24T11:22:37;11.10;99.90
10812;DHT22;5458;51.496;7.334;2023-04-24T11:25:05;11.10;99.90
10812;DHT22;5458;51.496;7.334;2023-04-24T11:27:41;11.20;99.90
10812;DHT22;5458;51.496;7.334;2023-04-24T11:30:08;11.10;99.90
10812;DHT22;5458;51.496;7.334;2023-04-24T11:37:43;11.10;99.90
10812;DHT22;5458;51.496;7.334;2023-04-24T11:40:12;11.20;99.90
10812;DHT22;5458;51.496;7.334;2023-04-24T11:42:46;11.10;99.90
10812;DHT22;5458;51.496;7.334;2023-04-24T11:45:17;11.20;99.90
10812;DHT22;5458;51.496;7.334;2023-04-24T11:47:44;11.30;99.90
10812;DHT22;5458;51.496;7.334;2023-04-24T11:50:16;11.40;99.90
10812;DHT22;5458;51.496;7.334;2023-04-24T11:52:44;11.50;99.90
10812;DHT22;5458;51.496;7.334;2023-04-24T11:57:46;11.80;99.90
10812;DHT22;5458;51.496;7.334;2023-04-24T12:00:17;11.90;99.90
10812;DHT22;5458;51.496;7.334;2023-04-24T12:02:44;12.00;99.90
10812;DHT22;5458;51.496;7.334;2023-04-24T12:05:19;12.00;99.90
10812;DHT22;5458;51.496;7.334;2023-04-24T12:07:45;11.90;99.90
10812;DHT22;5458;51.496;7.334;2023-04-24T12:10:11;11.60;99.90
10812;DHT22;5458;51.496;7.334;2023-04-24T12:12:36;11.40;99.90
10812;DHT22;5458;51.496;7.334;2023-04-24T12:15:07;11.20;99.90
10812;DHT22;5458;51.496;7.334;2023-04-24T12:17:34;11.10;99.90
10812;DHT22;5458;51.496;7.334;2023-04-24T12:20:02;11.00;99.90
10812;DHT22;5458;51.496;7.334;2023-04-24T12:25:10;10.90;99.90
10812;DHT22;5458;51.496;7.334;2023-04-24T12:27:36;11.00;99.90
10812;DHT22;5458;51.496;7.334;2023-04-24T12:30:04;11.20;99.90
10812;DHT22;5458;51.496;7.334;2023-04-24T12:32:30;11.40;99.90
10812;DHT22;5458;51.496;7.334;2023-04-24T12:34:56;11.60;99.90
10812;DHT22;5458;51.496;7.334;2023-04-24T12:37:26;11.90;99.90
10812;DHT22;5458;51.496;7.334;2023-04-24T12:40:02;12.20;99.90
10812;DHT22;5458;51.496;7.334;2023-04-24T12:42:30;12.30;99.90
10812;DHT22;5458;51.496;7.334;2023-04-24T12:45:06;12.20;99.90
10812;DHT22;5458;51.496;7.334;2023-04-24T12:47:33;12.20;99.90
10812;DHT22;5458;51.496;7.334;2023-04-24T12:49:59;12.10;99.90
10812;DHT22;5458;51.496;7.334;2023-04-24T12:52:29;12.10;99.90
10812;DHT22;5458;51.496;7.334;2023-04-24T12:54:57;12.10;99.90
10812;DHT22;5458;51.496;7.334;2023-04-24T12:57:24;12.10;99.90
10812;DHT22;5458;51.496;7.334;2023-04-24T12:59:49;12.00;99.90
10812;DHT22;5458;51.496;7.334;2023-04-24T13:02:16;11.90;99.90
10812;DHT22;5458;51.496;7.334;2023-04-24T13:04:52;11.70;99.90
10812;DHT22;5458;51.496;7.334;2023-04-24T13:07:19;11.50;99.90
10812;DHT22;5458;51.496;7.334;2023-04-24T13:09:45;11.40;99.90
10812;DHT22;5458;51.496;7.334;2023-04-24T13:12:11;11.30;99.90
10812;DHT22;5458;51.496;7.334;2023-04-24T13:14:38;11.30;99.90
10812;DHT22;5458;51.496;7.334;2023-04-24T13:17:04;11.30;99.90
10812;DHT22;5458;51.496;7.334;2023-04-24T13:19:35;11.40;99.90
10812;DHT22;5458;51.496;7.334;2023-04-24T13:22:01;11.50;99.90
10812;DHT22;5458;51.496;7.334;2023-04-24T13:24:27;11.70;99.90
10812;DHT22;5458;51.496;7.334;2023-04-24T13:26:53;11.90;99.90
10812;DHT22;5458;51.496;7.334;2023-04-24T13:29:20;12.10;99.90
10812;DHT22;5458;51.496;7.334;2023-04-24T13:31:50;12.10;99.90
10812;DHT22;5458;51.496;7.334;2023-04-24T13:34:17;12.00;99.90
10812;DHT22;5458;51.496;7.334;2023-04-24T13:36:43;11.80;99.90
10812;DHT22;5458;51.496;7.334;2023-04-24T13:39:08;11.80;99.90
10812;DHT22;5458;51.496;7.334;2023-04-24T13:41:34;11.70;99.90
10812;DHT22;5458;51.496;7.334;2023-04-24T13:44:02;11.60;99.90
10812;DHT22;5458;51.496;7.334;2023-04-24T13:46:27;11.60;99.90
10812;DHT22;5458;51.496;7.334;2023-04-24T13:48:53;11.50;99.90
10812;DHT22;5458;51.496;7.334;2023-04-24T13:51:19;11.50;99.90
10812;DHT22;5458;51.496;7.334;2023-04-24T13:53:44;11.60;99.90
10812;DHT22;5458;51.496;7.334;2023-04-24T13:56:10;11.50;99.90
10812;DHT22;5458;51.496;7.334;2023-04-24T13:58:37;11.50;99.90
10812;DHT22;5458;51.496;7.334;2023-04-24T14:01:03;11.40;99.90
10812;DHT22;5458;51.496;7.334;2023-04-24T14:03:29;11.50;99.90
10812;DHT22;5458;51.496;7.334;2023-04-24T14:05:55;11.60;99.90
10812;DHT22;5458;51.496;7.334;2023-04-24T14:08:21;11.60;99.90
10812;DHT22;5458;51.496;7.334;2023-04-24T14:10:46;11.70;99.90
10812;DHT22;5458;51.496;7.334;2023-04-24T14:13:12;11.70;99.90
10812;DHT22;5458;51.496;7.334;2023-04-24T14:15:38;11.70;99.90
10812;DHT22;5458;51.496;7.334;2023-04-24T14:18:04;11.70;99.90
10812;DHT22;5458;51.496;7.334;2023-04-24T14:20:29;11.70;99.90
10812;DHT22;5458;51.496;7.334;2023-04-24T14:22:56;11.90;99.90
10812;DHT22;5458;51.496;7.334;2023-04-24T14:25:24;12.00;99.90
10812;DHT22;5458;51.496;7.334;2023-04-24T14:27:50;12.20;99.90
10812;DHT22;5458;51.496;7.334;2023-04-24T14:30:16;12.30;99.90
10812;DHT22;5458;51.496;7.334;2023-04-24T14:32:42;12.50;99.90
10812;DHT22;5458;51.496;7.334;2023-04-24T14:35:08;12.50;99.90
10812;DHT22;5458;51.496;7.334;2023-04-24T14:37:33;12.40;99.90
10812;DHT22;5458;51.496;7.334;2023-04-24T14:39:59;12.50;99.90
10812;DHT22;5458;51.496;7.334;2023-04-24T14:42:25;12.50;99.90
10812;DHT22;5458;51.496;7.334;2023-04-24T14:44:51;12.30;99.90
10812;DHT22;5458;51.496;7.334;2023-04-24T14:47:16;12.20;99.90
10812;DHT22;5458;51.496;7.334;2023-04-24T14:49:49;12.10;99.90
10812;DHT22;5458;51.496;7.334;2023-04-24T14:52:15;12.20;99.90
10812;DHT22;5458;51.496;7.334;2023-04-24T14:54:41;12.00;99.90
10812;DHT22;5458;51.496;7.334;2023-04-24T14:57:07;11.90;99.90
10812;DHT22;5458;51.496;7.334;2023-04-24T14:59:33;11.90;99.90
10812;DHT22;5458;51.496;7.334;2023-04-24T15:01:59;11.80;99.90
10812;DHT22;5458;51.496;7.334;2023-04-24T15:04:25;11.60;99.90
10812;DHT22;5458;51.496;7.334;2023-04-24T15:06:51;11.60;99.90
10812;DHT22;5458;51.496;7.334;2023-04-24T15:09:17;11.50;99.90
10812;DHT22;5458;51.496;7.334;2023-04-24T15:11:42;11.40;99.90
10812;DHT22;5458;51.496;7.334;2023-04-24T15:14:08;11.30;99.90
10812;DHT22;5458;51.496;7.334;2023-04-24T15:16:34;11.20;99.90
10812;DHT22;5458;51.496;7.334;2023-04-24T15:19:00;11.10;99.90
10812;DHT22;5458;51.496;7.334;2023-04-24T15:21:26;11.10;99.90
10812;DHT22;5458;51.496;7.334;2023-04-24T15:23:52;11.20;99.90
10812;DHT22;5458;51.496;7.334;2023-04-24T15:26:18;11.20;99.90
10812;DHT22;5458;51.496;7.334;2023-04-24T15:28:44;11.10;99.90
10812;DHT22;5458;51.496;7.334;2023-04-24T15:31:12;11.20;99.90
10812;DHT22;5458;51.496;7.334;2023-04-24T15:33:37;11.30;99.90
10812;DHT22;5458;51.496;7.334;2023-04-24T15:36:03;11.60;99.90
10812;DHT22;5458;51.496;7.334;2023-04-24T15:38:29;11.80;99.90
10812;DHT22;5458;51.496;7.334;2023-04-24T15:40:54;12.00;99.90
10812;DHT22;5458;51.496;7.334;2023-04-24T15:43:20;11.90;99.90
10812;DHT22;5458;51.496;7.334;2023-04-24T15:45:45;11.90;99.90
10812;DHT22;5458;51.496;7.334;2023-04-24T15:48:11;11.80;99.90
10812;DHT22;5458;51.496;7.334;2023-04-24T15:50:37;11.80;99.90
10812;DHT22;5458;51.496;7.334;2023-04-24T15:53:02;11.80;99.90
10812;DHT22;5458;51.496;7.334;2023-04-24T15:55:28;11.80;99.90
10812;DHT22;5458;51.496;7.334;2023-04-24T15:57:54;11.80;99.90
10812;DHT22;5458;51.496;7.334;2023-04-24T16:00:19;11.80;99.90
10812;DHT22;5458;51.496;7.334;2023-04-24T16:02:46;11.80;99.90